Fort Worth, TX

12:57 AM CDT on Οκτώβριος 01, 2014 (GMT -0500)
BRIT Living Roof | Change Station
CLOSE
Current Station
Personal Weather Stations
Location: Fort Worth, TX
Elevation: 594 ft
Nearby Weather Stations

Elev 594 ft 32.74 °N, 97.36 °W | Updated 7 minutes ago

Αίθριος
Αίθριος
78.4 ° F
Feels Like 80 ° F
N
2.0
Ανεμος Μεταβλητός Ανεμος from ΝΝΑ
Gusts 2.0 mph

Σήμερα
High -- | Low -- ° F
--% Chance of Precip.
Yesterday
High -- | Low -- ° F
Precip. -- in
7:23 AM 7:13 PM
Μηνίσκος, 44% visible
Ατμοσφαιρική Πίεση 29.73 in
Ορατότητα 10.0 Μίλια
Σύννεφα Αίθριος
Δείκτης Δυσφορίας 80 ° F
Σημείο Δρόσου 67 ° F
Υγρασία 68%
Rainfall 0.00 in
Snow Depth Not available.
Υπεριώδης ακτινοβολία (UV) 0.0 out of 12
Pollen 8.90 out of 12
Όζον Καλή
PM2.5 Καλή
Flu Activity Not available.
METAR KFTW 010453Z 17011KT 10SM CLR 27/19 A2976 RMK AO2 SLP067 T02720189

More Conditions Fewer Conditions

Ατμοσφαιρική Πίεση 29.73 in
Ορατότητα 10.0 Μίλια
Σύννεφα Αίθριος
Δείκτης Δυσφορίας 80 ° F
Σημείο Δρόσου 67 ° F
Υγρασία 68%
Rainfall 0.00 in
Snow Depth Not available.
Υπεριώδης ακτινοβολία (UV) 0.0 out of 12
Pollen 8.90 out of 12
Όζον Καλή
PM2.5 Καλή
Flu Activity Not available.
METAR KFTW 010453Z 17011KT 10SM CLR 27/19 A2976 RMK AO2 SLP067 T02720189

More Conditions Fewer Conditions

10-Day Weather Forecast

Almanac

Αστρονομία

Oct. 01, 2014 Rise Set
Actual Time 7:23 AM CDT 7:13 PM CDT
Civil Twilight 6:58 AM CDT 7:38 PM CDT
Nautical Twilight 6:30 AM CDT 8:06 PM CDT
Astronomical Twilight 6:01 AM CDT 8:35 PM CDT
Moon 2:11 PM CDT 12:00 AM CDT
Length Of Visible Light 12h 39m
Διάρκεια ημέρας
11h 50m
Tomorrow will be 1m 59s shorter.
Μηνίσκος, 44% of the Moon is Illuminated
Σήμερα
Μηνίσκος
Oct 1
Πρώτο τέταρτο
Oct 8
Πανσέληνος
Oct 15
Τελευταίο τέταρτο
Oct 23
New

Today's Extremes

State Highs State Lows

Community

WunderPhotos

Upload Photos

1,757,875 photos uploaded!

Nearby

Air Quality

  Air Quality AQ Index Pollutant
Yesterday Μέτρια
OZONE
Yesterday Καλή
PM2.5
Current Καλή
PM2.5
Current Καλή
OZONE
Τρίτη Μέτρια
OZONE
Τρίτη Καλή
PM10
Τετάρτη Καλή
OZONE
Τετάρτη Καλή
PM10
Πέμπτη Καλή
OZONE
Πέμπτη Καλή
PM10
Παρασκευή Καλή
OZONE
Παρασκευή Καλή
PM10

Snow Depth

Station Depth Elevation
No new snow has been reported.

Earthquake Activity

City Distance Mag. Time & Date
No recent earthquake activity has been reported nearby.
Minimum magnitude displayed is 2.5.

Coastal Water Temperatures

Τοποθεσία Θερμοκρασία
No Stations Reporting

Nearby Weather Stations